ハルツーム の空港の天気 - METARとTAF

ハルツーム国際空港 ( HSSS / KRT ) - スーダン ハルツーム
飛行場実況気象(Metar)
観測時間10/16 08:30 CAT (10/16 06:30 UTC)
風向・風速北 8m/s
視程10km以上
天気現象
なし
気温32℃
湿度18%
気圧1013hPa
METARHSSS 160630Z 01016KT CAVOK 32/05 Q1013 NOSIG
過去の天気等 Google飛行場航空写真 Wunderground天気予報

過去48時間のMETAR

飛行場予報(TAF)
発表時間: 10/16 07:00 CAT (10/16 05:00 UTC)
予報対象時間: 16日8時 CAT ~ 17日14時 CAT
風向・風速北北西 4m/s 瞬間風速 9m/s
視程10km以上
なし
TAF HSSS 160500Z 1606/1712 34008G18KT CAVOK